Flight NumberIRM056 Date13.05.2018
Departure AirportVTBS Arrival AirportOIIE
Departure Time11.36Arrival Time18.09
Pilot In CommandSaeed TabaTabaei Block Time6.50 Hours
Pilot Rating100 % AircraftEP-MNO [ A310-300ET ]


Distance2,971.00 Nm. Passengers202
Fuel Used29,696 Kg. Cargo16689 Kg
Expense Details Income Details
Fuel Cost37,923 v$Ticket Sales105,040 v$
Pilot Salary8,229 v$ Cargo income34,493.00 v$
Crew Salary1,010 v$ Bonus19,593 v$
Gross Profit109,331 v$ ( 1,093,310 v$ )

Client Versionv2.2.0.rc3 Max Simrate1
Flight Critique Pilot CommentsOIIE 131900Z 30010KT 9999 SCT100 16/10 Q1011// RADA2V ILS RWY 29R